Etusivu
METAR-TAF:

METAR-TAF

Lentoasemat :

Stanton, Minnesota, Yhdysvallat

Leveyspiiri: 44-28-32N, Pituuspiiri: 093-00-59W, korkeus merenpinnasta: 280 m

Tämänhetkinen sää

Tämä raportti tehtiin 7 minuuttia sitten, kello 22.56 UTC
Tuuli 12 kn luoteesta
Lämpötila -10°C
Kosteus 48%
Ilmanpaine 1034 hPa
Näkyvyys: 16.1 km
Hajonneita pilviä 4600 ft:n korkeudessa

METAR: KSYN 112256Z AUTO 32012KT 10SM BKN046 M10/M19 A3052 RMK AO2 T11051191

Aika: 17:03 (23:03 UTC)


TAF: puuttuu

Säähavainnot ja -ennusteet yli 4000 lentoasemalta (METAR- ja TAF-raportit).

Käytössä olevat sääasemat on merkitty karttaan keltaisilla ja punaisilla pisteillä.

Aseta hiiri pisteen päälle nähdäksesi sääaseman nimen.

Klikkaa sitten nähdäksesi säähavainnot ja -ennusteet.

Kartan vaihtaminen: klikkaa mustalla rastilla varustettuja vihreitä pisteitä, niin voit zoomata sisään; viivalla varustettua vihreää pistettä, niin voit zoomata ulos tai vihreitä nuolia, niin pääset viereisille kartoille.


METAR-TAF: